sensor_id;sensor_type;location;lat;lon;timestamp;P1;durP1;ratioP1;P2;durP2;ratioP2
43650;SDS011;29247;50.944;5.382;2022-11-04T00:01:51;1.20;;;0.70;;
43650;SDS011;29247;50.944;5.382;2022-11-04T00:04:21;1.63;;;0.70;;
43650;SDS011;29247;50.944;5.382;2022-11-04T00:06:48;3.25;;;0.70;;
43650;SDS011;29247;50.944;5.382;2022-11-04T00:09:19;0.95;;;0.68;;
43650;SDS011;29247;50.944;5.382;2022-11-04T00:11:47;1.33;;;0.80;;
43650;SDS011;29247;50.944;5.382;2022-11-04T00:14:34;2.05;;;0.82;;
43650;SDS011;29247;50.944;5.382;2022-11-04T00:17:03;0.93;;;0.80;;
43650;SDS011;29247;50.944;5.382;2022-11-04T00:19:53;3.55;;;0.80;;
43650;SDS011;29247;50.944;5.382;2022-11-04T00:22:38;2.50;;;0.93;;
43650;SDS011;29247;50.944;5.382;2022-11-04T00:25:24;4.22;;;0.90;;
43650;SDS011;29247;50.944;5.382;2022-11-04T00:28:10;1.70;;;0.80;;
43650;SDS011;29247;50.944;5.382;2022-11-04T00:31:06;3.13;;;1.05;;
43650;SDS011;29247;50.944;5.382;2022-11-04T00:33:55;2.53;;;1.08;;
43650;SDS011;29247;50.944;5.382;2022-11-04T00:38:48;3.60;;;1.00;;
43650;SDS011;29247;50.944;5.382;2022-11-04T00:41:14;5.15;;;1.05;;
43650;SDS011;29247;50.944;5.382;2022-11-04T00:43:52;4.57;;;1.10;;
43650;SDS011;29247;50.944;5.382;2022-11-04T00:46:22;1.77;;;1.10;;
43650;SDS011;29247;50.944;5.382;2022-11-04T00:48:50;6.30;;;1.80;;
43650;SDS011;29247;50.944;5.382;2022-11-04T00:51:16;4.07;;;1.25;;
43650;SDS011;29247;50.944;5.382;2022-11-04T00:53:42;3.30;;;1.20;;
43650;SDS011;29247;50.944;5.382;2022-11-04T00:56:08;2.20;;;1.10;;
43650;SDS011;29247;50.944;5.382;2022-11-04T00:58:33;1.77;;;1.20;;
43650;SDS011;29247;50.944;5.382;2022-11-04T01:00:59;1.77;;;1.08;;
43650;SDS011;29247;50.944;5.382;2022-11-04T01:03:30;4.90;;;1.27;;
43650;SDS011;29247;50.944;5.382;2022-11-04T01:05:58;1.95;;;1.10;;
43650;SDS011;29247;50.944;5.382;2022-11-04T01:08:29;2.28;;;1.40;;
43650;SDS011;29247;50.944;5.382;2022-11-04T01:10:54;1.60;;;1.20;;
43650;SDS011;29247;50.944;5.382;2022-11-04T01:13:20;3.72;;;1.33;;
43650;SDS011;29247;50.944;5.382;2022-11-04T01:15:46;5.55;;;1.80;;
43650;SDS011;29247;50.944;5.382;2022-11-04T01:18:11;3.88;;;1.27;;
43650;SDS011;29247;50.944;5.382;2022-11-04T01:20:37;2.55;;;1.20;;
43650;SDS011;29247;50.944;5.382;2022-11-04T01:23:06;2.38;;;1.42;;
43650;SDS011;29247;50.944;5.382;2022-11-04T01:25:31;4.82;;;1.38;;
43650;SDS011;29247;50.944;5.382;2022-11-04T01:28:00;5.25;;;1.13;;
43650;SDS011;29247;50.944;5.382;2022-11-04T01:30:30;5.80;;;1.20;;
43650;SDS011;29247;50.944;5.382;2022-11-04T01:32:56;3.13;;;1.10;;
43650;SDS011;29247;50.944;5.382;2022-11-04T01:35:21;3.80;;;0.93;;
43650;SDS011;29247;50.944;5.382;2022-11-04T01:37:47;5.63;;;0.95;;
43650;SDS011;29247;50.944;5.382;2022-11-04T01:40:16;2.70;;;1.08;;
43650;SDS011;29247;50.944;5.382;2022-11-04T01:42:46;4.25;;;0.80;;
43650;SDS011;29247;50.944;5.382;2022-11-04T01:45:13;3.22;;;0.88;;
43650;SDS011;29247;50.944;5.382;2022-11-04T01:47:43;4.43;;;1.10;;
43650;SDS011;29247;50.944;5.382;2022-11-04T01:50:31;4.43;;;0.80;;
43650;SDS011;29247;50.944;5.382;2022-11-04T01:53:08;10.57;;;1.00;;
43650;SDS011;29247;50.944;5.382;2022-11-04T01:55:44;3.78;;;1.20;;
43650;SDS011;29247;50.944;5.382;2022-11-04T01:58:17;1.55;;;0.82;;
43650;SDS011;29247;50.944;5.382;2022-11-04T02:00:49;3.55;;;0.80;;
43650;SDS011;29247;50.944;5.382;2022-11-04T02:03:17;3.03;;;0.95;;
43650;SDS011;29247;50.944;5.382;2022-11-04T02:05:47;4.05;;;1.00;;
43650;SDS011;29247;50.944;5.382;2022-11-04T02:08:14;3.53;;;0.80;;
43650;SDS011;29247;50.944;5.382;2022-11-04T02:10:53;2.85;;;1.10;;
43650;SDS011;29247;50.944;5.382;2022-11-04T02:13:26;4.13;;;0.93;;
43650;SDS011;29247;50.944;5.382;2022-11-04T02:24:17;2.50;;;0.95;;
43650;SDS011;29247;50.944;5.382;2022-11-04T02:35:00;5.20;;;0.93;;
43650;SDS011;29247;50.944;5.382;2022-11-04T02:43:51;4.72;;;1.25;;
43650;SDS011;29247;50.944;5.382;2022-11-04T02:49:14;4.93;;;1.00;;
43650;SDS011;29247;50.944;5.382;2022-11-04T02:51:52;5.07;;;1.10;;
43650;SDS011;29247;50.944;5.382;2022-11-04T02:57:11;3.33;;;1.00;;
43650;SDS011;29247;50.944;5.382;2022-11-04T02:59:51;4.40;;;1.00;;
43650;SDS011;29247;50.944;5.382;2022-11-04T03:02:26;5.03;;;1.20;;
43650;SDS011;29247;50.944;5.382;2022-11-04T03:05:27;1.55;;;1.00;;
43650;SDS011;29247;50.944;5.382;2022-11-04T03:08:00;7.30;;;0.93;;
43650;SDS011;29247;50.944;5.382;2022-11-04T03:10:35;1.50;;;1.00;;
43650;SDS011;29247;50.944;5.382;2022-11-04T03:13:17;2.35;;;0.88;;
43650;SDS011;29247;50.944;5.382;2022-11-04T03:16:32;6.00;;;1.30;;
43650;SDS011;29247;50.944;5.382;2022-11-04T03:18:55;2.20;;;0.98;;
43650;SDS011;29247;50.944;5.382;2022-11-04T03:21:30;1.85;;;1.00;;
43650;SDS011;29247;50.944;5.382;2022-11-04T03:23:59;5.45;;;1.45;;
43650;SDS011;29247;50.944;5.382;2022-11-04T03:26:33;2.55;;;0.93;;
43650;SDS011;29247;50.944;5.382;2022-11-04T03:31:56;5.72;;;0.95;;
43650;SDS011;29247;50.944;5.382;2022-11-04T03:37:01;4.68;;;1.08;;
43650;SDS011;29247;50.944;5.382;2022-11-04T03:39:28;4.90;;;1.05;;
43650;SDS011;29247;50.944;5.382;2022-11-04T03:41:58;4.18;;;1.27;;
43650;SDS011;29247;50.944;5.382;2022-11-04T03:44:30;8.68;;;1.40;;
43650;SDS011;29247;50.944;5.382;2022-11-04T03:46:55;4.75;;;1.00;;
43650;SDS011;29247;50.944;5.382;2022-11-04T03:49:24;1.60;;;0.85;;
43650;SDS011;29247;50.944;5.382;2022-11-04T03:51:51;4.20;;;1.10;;
43650;SDS011;29247;50.944;5.382;2022-11-04T03:54:17;7.40;;;1.23;;
43650;SDS011;29247;50.944;5.382;2022-11-04T04:02:02;6.05;;;1.10;;
43650;SDS011;29247;50.944;5.382;2022-11-04T04:04:36;5.30;;;1.00;;
43650;SDS011;29247;50.944;5.382;2022-11-04T04:07:13;6.07;;;1.10;;
43650;SDS011;29247;50.944;5.382;2022-11-04T04:09:49;4.00;;;0.90;;
43650;SDS011;29247;50.944;5.382;2022-11-04T04:12:23;5.35;;;1.00;;
43650;SDS011;29247;50.944;5.382;2022-11-04T04:17:44;9.18;;;1.95;;
43650;SDS011;29247;50.944;5.382;2022-11-04T04:20:35;6.65;;;1.20;;
43650;SDS011;29247;50.944;5.382;2022-11-04T04:23:08;4.47;;;0.85;;
43650;SDS011;29247;50.944;5.382;2022-11-04T04:25:59;6.68;;;1.13;;
43650;SDS011;29247;50.944;5.382;2022-11-04T04:28:47;5.10;;;1.13;;
43650;SDS011;29247;50.944;5.382;2022-11-04T04:31:18;2.28;;;0.90;;
43650;SDS011;29247;50.944;5.382;2022-11-04T04:34:04;5.75;;;1.20;;
43650;SDS011;29247;50.944;5.382;2022-11-04T04:36:33;5.60;;;1.27;;
43650;SDS011;29247;50.944;5.382;2022-11-04T04:39:07;4.50;;;1.17;;
43650;SDS011;29247;50.944;5.382;2022-11-04T04:41:57;3.38;;;0.80;;
43650;SDS011;29247;50.944;5.382;2022-11-04T04:44:44;3.67;;;1.10;;
43650;SDS011;29247;50.944;5.382;2022-11-04T04:47:26;4.70;;;1.08;;
43650;SDS011;29247;50.944;5.382;2022-11-04T04:49:59;4.13;;;2.03;;
43650;SDS011;29247;50.944;5.382;2022-11-04T04:52:32;4.03;;;0.90;;
43650;SDS011;29247;50.944;5.382;2022-11-04T04:55:01;4.28;;;1.13;;
43650;SDS011;29247;50.944;5.382;2022-11-04T04:57:27;5.82;;;1.13;;
43650;SDS011;29247;50.944;5.382;2022-11-04T04:59:53;2.83;;;1.13;;
43650;SDS011;29247;50.944;5.382;2022-11-04T05:02:21;2.83;;;1.20;;
43650;SDS011;29247;50.944;5.382;2022-11-04T05:04:51;4.13;;;1.42;;
43650;SDS011;29247;50.944;5.382;2022-11-04T05:07:17;10.00;;;1.60;;
43650;SDS011;29247;50.944;5.382;2022-11-04T05:09:46;6.38;;;1.20;;
43650;SDS011;29247;50.944;5.382;2022-11-04T05:12:17;2.72;;;1.20;;
43650;SDS011;29247;50.944;5.382;2022-11-04T05:14:42;4.50;;;1.55;;
43650;SDS011;29247;50.944;5.382;2022-11-04T05:17:11;3.70;;;0.90;;
43650;SDS011;29247;50.944;5.382;2022-11-04T05:19:37;2.67;;;0.88;;
43650;SDS011;29247;50.944;5.382;2022-11-04T05:22:03;7.55;;;1.23;;
43650;SDS011;29247;50.944;5.382;2022-11-04T05:24:31;5.57;;;0.90;;
43650;SDS011;29247;50.944;5.382;2022-11-04T05:26:57;5.15;;;0.90;;
43650;SDS011;29247;50.944;5.382;2022-11-04T05:29:27;5.13;;;1.00;;
43650;SDS011;29247;50.944;5.382;2022-11-04T05:31:55;6.93;;;1.38;;
43650;SDS011;29247;50.944;5.382;2022-11-04T05:34:21;2.72;;;1.00;;
43650;SDS011;29247;50.944;5.382;2022-11-04T05:36:49;3.58;;;1.00;;
43650;SDS011;29247;50.944;5.382;2022-11-04T05:39:18;3.67;;;1.00;;
43650;SDS011;29247;50.944;5.382;2022-11-04T05:41:46;2.65;;;0.82;;
43650;SDS011;29247;50.944;5.382;2022-11-04T05:44:13;5.05;;;1.10;;
43650;SDS011;29247;50.944;5.382;2022-11-04T05:46:42;3.38;;;0.75;;
43650;SDS011;29247;50.944;5.382;2022-11-04T05:49:10;6.80;;;0.95;;
43650;SDS011;29247;50.944;5.382;2022-11-04T05:51:38;3.05;;;0.82;;
43650;SDS011;29247;50.944;5.382;2022-11-04T05:54:03;6.40;;;0.80;;
43650;SDS011;29247;50.944;5.382;2022-11-04T05:59:02;4.07;;;1.13;;
43650;SDS011;29247;50.944;5.382;2022-11-04T06:01:32;8.05;;;1.00;;
43650;SDS011;29247;50.944;5.382;2022-11-04T06:04:02;5.15;;;1.00;;
43650;SDS011;29247;50.944;5.382;2022-11-04T06:06:30;2.13;;;1.40;;
43650;SDS011;29247;50.944;5.382;2022-11-04T06:08:57;3.17;;;0.90;;
43650;SDS011;29247;50.944;5.382;2022-11-04T06:11:24;4.22;;;1.10;;
43650;SDS011;29247;50.944;5.382;2022-11-04T06:13:56;4.45;;;1.45;;
43650;SDS011;29247;50.944;5.382;2022-11-04T06:16:22;2.40;;;1.15;;
43650;SDS011;29247;50.944;5.382;2022-11-04T06:18:53;4.25;;;1.83;;
43650;SDS011;29247;50.944;5.382;2022-11-04T06:23:46;4.70;;;1.45;;
43650;SDS011;29247;50.944;5.382;2022-11-04T06:26:15;3.55;;;1.25;;
43650;SDS011;29247;50.944;5.382;2022-11-04T06:28:41;7.72;;;1.60;;
43650;SDS011;29247;50.944;5.382;2022-11-04T06:31:12;4.22;;;1.33;;
43650;SDS011;29247;50.944;5.382;2022-11-04T06:33:42;3.03;;;1.08;;
43650;SDS011;29247;50.944;5.382;2022-11-04T06:36:10;2.45;;;0.95;;
43650;SDS011;29247;50.944;5.382;2022-11-04T06:38:42;2.80;;;0.88;;
43650;SDS011;29247;50.944;5.382;2022-11-04T06:41:14;5.50;;;1.35;;
43650;SDS011;29247;50.944;5.382;2022-11-04T06:43:43;3.55;;;1.08;;
43650;SDS011;29247;50.944;5.382;2022-11-04T06:46:25;2.35;;;1.00;;
43650;SDS011;29247;50.944;5.382;2022-11-04T06:49:04;4.18;;;1.08;;
43650;SDS011;29247;50.944;5.382;2022-11-04T06:51:34;4.03;;;1.85;;
43650;SDS011;29247;50.944;5.382;2022-11-04T06:54:02;7.55;;;1.70;;
43650;SDS011;29247;50.944;5.382;2022-11-04T06:56:31;6.22;;;1.35;;
43650;SDS011;29247;50.944;5.382;2022-11-04T06:58:57;5.07;;;1.40;;
43650;SDS011;29247;50.944;5.382;2022-11-04T07:01:24;3.03;;;1.00;;
43650;SDS011;29247;50.944;5.382;2022-11-04T07:03:52;2.00;;;1.20;;
43650;SDS011;29247;50.944;5.382;2022-11-04T07:06:26;7.80;;;1.50;;
43650;SDS011;29247;50.944;5.382;2022-11-04T07:08:56;5.07;;;1.40;;
43650;SDS011;29247;50.944;5.382;2022-11-04T07:11:25;5.00;;;1.38;;
43650;SDS011;29247;50.944;5.382;2022-11-04T07:13:53;3.28;;;1.20;;
43650;SDS011;29247;50.944;5.382;2022-11-04T07:16:21;4.43;;;1.20;;
43650;SDS011;29247;50.944;5.382;2022-11-04T07:18:47;5.45;;;1.15;;
43650;SDS011;29247;50.944;5.382;2022-11-04T07:21:18;3.50;;;1.27;;
43650;SDS011;29247;50.944;5.382;2022-11-04T07:23:44;4.50;;;1.20;;
43650;SDS011;29247;50.944;5.382;2022-11-04T07:26:11;4.03;;;1.30;;
43650;SDS011;29247;50.944;5.382;2022-11-04T07:28:40;6.75;;;1.40;;
43650;SDS011;29247;50.944;5.382;2022-11-04T07:31:06;7.55;;;1.40;;
43650;SDS011;29247;50.944;5.382;2022-11-04T07:33:33;6.63;;;1.90;;
43650;SDS011;29247;50.944;5.382;2022-11-04T07:36:08;9.40;;;2.13;;
43650;SDS011;29247;50.944;5.382;2022-11-04T07:38:40;9.20;;;2.03;;
43650;SDS011;29247;50.944;5.382;2022-11-04T07:41:06;6.15;;;2.05;;
43650;SDS011;29247;50.944;5.382;2022-11-04T07:43:35;6.50;;;1.73;;
43650;SDS011;29247;50.944;5.382;2022-11-04T07:46:11;4.55;;;1.90;;
43650;SDS011;29247;50.944;5.382;2022-11-04T07:48:38;6.05;;;1.33;;
43650;SDS011;29247;50.944;5.382;2022-11-04T07:51:06;7.78;;;1.70;;
43650;SDS011;29247;50.944;5.382;2022-11-04T07:53:34;17.92;;;7.22;;
43650;SDS011;29247;50.944;5.382;2022-11-04T07:56:04;17.30;;;7.30;;
43650;SDS011;29247;50.944;5.382;2022-11-04T07:58:35;18.48;;;6.97;;
43650;SDS011;29247;50.944;5.382;2022-11-04T08:01:07;13.85;;;6.28;;
43650;SDS011;29247;50.944;5.382;2022-11-04T08:03:38;7.80;;;2.50;;
43650;SDS011;29247;50.944;5.382;2022-11-04T08:06:07;5.72;;;2.28;;
43650;SDS011;29247;50.944;5.382;2022-11-04T08:11:04;9.00;;;1.98;;
43650;SDS011;29247;50.944;5.382;2022-11-04T08:13:35;4.68;;;1.75;;
43650;SDS011;29247;50.944;5.382;2022-11-04T08:16:05;4.28;;;2.50;;
43650;SDS011;29247;50.944;5.382;2022-11-04T08:18:37;7.03;;;1.80;;
43650;SDS011;29247;50.944;5.382;2022-11-04T08:21:03;7.20;;;1.95;;
43650;SDS011;29247;50.944;5.382;2022-11-04T08:23:30;3.42;;;1.27;;
43650;SDS011;29247;50.944;5.382;2022-11-04T08:25:57;7.65;;;1.30;;
43650;SDS011;29247;50.944;5.382;2022-11-04T08:28:31;5.45;;;1.70;;
43650;SDS011;29247;50.944;5.382;2022-11-04T08:31:02;4.05;;;1.48;;
43650;SDS011;29247;50.944;5.382;2022-11-04T08:33:33;6.00;;;1.70;;
43650;SDS011;29247;50.944;5.382;2022-11-04T08:36:11;5.95;;;1.65;;
43650;SDS011;29247;50.944;5.382;2022-11-04T08:38:51;3.90;;;1.35;;
43650;SDS011;29247;50.944;5.382;2022-11-04T08:41:28;8.07;;;1.48;;
43650;SDS011;29247;50.944;5.382;2022-11-04T08:43:55;4.70;;;1.25;;
43650;SDS011;29247;50.944;5.382;2022-11-04T08:46:28;7.05;;;1.30;;
43650;SDS011;29247;50.944;5.382;2022-11-04T08:48:58;5.20;;;1.38;;
43650;SDS011;29247;50.944;5.382;2022-11-04T08:51:24;5.57;;;1.50;;
43650;SDS011;29247;50.944;5.382;2022-11-04T08:53:51;4.35;;;1.38;;
43650;SDS011;29247;50.944;5.382;2022-11-04T08:56:24;6.00;;;1.15;;
43650;SDS011;29247;50.944;5.382;2022-11-04T08:58:54;2.35;;;1.10;;
43650;SDS011;29247;50.944;5.382;2022-11-04T09:01:23;2.67;;;1.20;;
43650;SDS011;29247;50.944;5.382;2022-11-04T09:03:52;1.75;;;0.88;;
43650;SDS011;29247;50.944;5.382;2022-11-04T09:06:21;3.90;;;1.63;;
43650;SDS011;29247;50.944;5.382;2022-11-04T09:11:21;6.40;;;1.40;;
43650;SDS011;29247;50.944;5.382;2022-11-04T09:13:47;5.22;;;1.10;;
43650;SDS011;29247;50.944;5.382;2022-11-04T09:16:17;7.00;;;1.42;;
43650;SDS011;29247;50.944;5.382;2022-11-04T09:18:43;5.65;;;1.45;;
43650;SDS011;29247;50.944;5.382;2022-11-04T09:21:11;7.03;;;1.45;;
43650;SDS011;29247;50.944;5.382;2022-11-04T09:23:38;4.07;;;1.20;;
43650;SDS011;29247;50.944;5.382;2022-11-04T09:26:11;9.98;;;1.52;;
43650;SDS011;29247;50.944;5.382;2022-11-04T09:28:40;5.93;;;1.55;;
43650;SDS011;29247;50.944;5.382;2022-11-04T09:31:07;6.35;;;1.30;;
43650;SDS011;29247;50.944;5.382;2022-11-04T09:33:38;3.58;;;1.40;;
43650;SDS011;29247;50.944;5.382;2022-11-04T09:36:08;3.38;;;1.23;;
43650;SDS011;29247;50.944;5.382;2022-11-04T09:38:35;7.35;;;1.52;;
43650;SDS011;29247;50.944;5.382;2022-11-04T09:41:26;4.82;;;1.33;;
43650;SDS011;29247;50.944;5.382;2022-11-04T09:46:56;6.07;;;1.45;;
43650;SDS011;29247;50.944;5.382;2022-11-04T09:49:25;3.97;;;0.98;;
43650;SDS011;29247;50.944;5.382;2022-11-04T09:51:59;3.22;;;2.03;;
43650;SDS011;29247;50.944;5.382;2022-11-04T09:54:38;5.30;;;1.20;;
43650;SDS011;29247;50.944;5.382;2022-11-04T09:57:12;5.05;;;1.40;;
43650;SDS011;29247;50.944;5.382;2022-11-04T09:59:42;5.03;;;1.85;;
43650;SDS011;29247;50.944;5.382;2022-11-04T10:05:07;4.68;;;1.40;;
43650;SDS011;29247;50.944;5.382;2022-11-04T10:07:55;4.75;;;1.20;;
43650;SDS011;29247;50.944;5.382;2022-11-04T10:16:23;4.82;;;1.40;;
43650;SDS011;29247;50.944;5.382;2022-11-04T10:19:01;6.55;;;1.77;;
43650;SDS011;29247;50.944;5.382;2022-11-04T10:21:37;5.93;;;1.30;;
43650;SDS011;29247;50.944;5.382;2022-11-04T10:24:40;2.88;;;1.27;;
43650;SDS011;29247;50.944;5.382;2022-11-04T10:27:20;7.15;;;1.55;;
43650;SDS011;29247;50.944;5.382;2022-11-04T10:29:51;2.78;;;1.27;;
43650;SDS011;29247;50.944;5.382;2022-11-04T10:32:27;5.22;;;1.20;;
43650;SDS011;29247;50.944;5.382;2022-11-04T10:37:29;4.55;;;1.40;;
43650;SDS011;29247;50.944;5.382;2022-11-04T10:40:38;5.07;;;1.40;;
43650;SDS011;29247;50.944;5.382;2022-11-04T10:42:50;2.80;;;1.50;;
43650;SDS011;29247;50.944;5.382;2022-11-04T10:45:19;7.55;;;1.60;;
43650;SDS011;29247;50.944;5.382;2022-11-04T10:47:55;4.80;;;1.50;;
43650;SDS011;29247;50.944;5.382;2022-11-04T10:50:33;5.38;;;1.67;;
43650;SDS011;29247;50.944;5.382;2022-11-04T10:53:17;6.53;;;1.70;;
43650;SDS011;29247;50.944;5.382;2022-11-04T10:56:09;5.50;;;1.23;;
43650;SDS011;29247;50.944;5.382;2022-11-04T10:58:45;1.67;;;0.90;;
43650;SDS011;29247;50.944;5.382;2022-11-04T11:01:33;2.28;;;0.70;;
43650;SDS011;29247;50.944;5.382;2022-11-04T11:04:00;1.60;;;0.65;;
43650;SDS011;29247;50.944;5.382;2022-11-04T11:11:47;4.25;;;0.90;;
43650;SDS011;29247;50.944;5.382;2022-11-04T11:14:15;3.45;;;1.05;;
43650;SDS011;29247;50.944;5.382;2022-11-04T11:16:47;1.38;;;1.00;;
43650;SDS011;29247;50.944;5.382;2022-11-04T11:19:24;2.47;;;1.00;;
43650;SDS011;29247;50.944;5.382;2022-11-04T11:21:58;4.35;;;1.52;;
43650;SDS011;29247;50.944;5.382;2022-11-04T11:24:26;5.20;;;1.70;;
43650;SDS011;29247;50.944;5.382;2022-11-04T11:26:57;4.47;;;1.27;;
43650;SDS011;29247;50.944;5.382;2022-11-04T11:29:29;5.60;;;2.10;;
43650;SDS011;29247;50.944;5.382;2022-11-04T11:32:04;4.45;;;1.85;;
43650;SDS011;29247;50.944;5.382;2022-11-04T11:34:44;7.32;;;2.25;;
43650;SDS011;29247;50.944;5.382;2022-11-04T11:37:20;4.38;;;1.92;;
43650;SDS011;29247;50.944;5.382;2022-11-04T11:39:48;6.22;;;2.05;;
43650;SDS011;29247;50.944;5.382;2022-11-04T11:42:18;4.93;;;1.90;;
43650;SDS011;29247;50.944;5.382;2022-11-04T11:44:51;4.65;;;2.20;;
43650;SDS011;29247;50.944;5.382;2022-11-04T11:47:34;4.25;;;2.03;;
43650;SDS011;29247;50.944;5.382;2022-11-04T11:55:51;9.40;;;2.60;;
43650;SDS011;29247;50.944;5.382;2022-11-04T11:58:33;3.90;;;2.20;;
43650;SDS011;29247;50.944;5.382;2022-11-04T12:01:14;6.45;;;2.13;;
43650;SDS011;29247;50.944;5.382;2022-11-04T12:03:42;8.10;;;2.40;;
43650;SDS011;29247;50.944;5.382;2022-11-04T12:17:11;6.97;;;1.90;;
43650;SDS011;29247;50.944;5.382;2022-11-04T12:19:58;3.38;;;1.95;;
43650;SDS011;29247;50.944;5.382;2022-11-04T12:25:39;4.85;;;2.17;;
43650;SDS011;29247;50.944;5.382;2022-11-04T12:28:32;4.15;;;2.22;;
43650;SDS011;29247;50.944;5.382;2022-11-04T12:31:11;2.97;;;2.08;;
43650;SDS011;29247;50.944;5.382;2022-11-04T12:42:25;3.53;;;1.77;;
43650;SDS011;29247;50.944;5.382;2022-11-04T12:45:28;6.38;;;1.95;;
43650;SDS011;29247;50.944;5.382;2022-11-04T12:48:21;3.70;;;1.95;;
43650;SDS011;29247;50.944;5.382;2022-11-04T12:51:13;4.32;;;1.80;;
43650;SDS011;29247;50.944;5.382;2022-11-04T12:56:39;3.28;;;2.25;;
43650;SDS011;29247;50.944;5.382;2022-11-04T12:59:18;7.50;;;2.10;;
43650;SDS011;29247;50.944;5.382;2022-11-04T13:04:40;5.05;;;2.22;;
43650;SDS011;29247;50.944;5.382;2022-11-04T13:07:28;3.22;;;1.58;;
43650;SDS011;29247;50.944;5.382;2022-11-04T13:10:06;5.35;;;1.75;;
43650;SDS011;29247;50.944;5.382;2022-11-04T13:12:47;2.35;;;1.65;;
43650;SDS011;29247;50.944;5.382;2022-11-04T13:15:22;3.63;;;1.50;;
43650;SDS011;29247;50.944;5.382;2022-11-04T13:17:53;6.10;;;1.40;;
43650;SDS011;29247;50.944;5.382;2022-11-04T13:22:56;5.90;;;1.65;;
43650;SDS011;29247;50.944;5.382;2022-11-04T13:25:33;8.02;;;2.53;;
43650;SDS011;29247;50.944;5.382;2022-11-04T13:28:12;5.32;;;2.75;;
43650;SDS011;29247;50.944;5.382;2022-11-04T13:39:11;7.50;;;4.93;;
43650;SDS011;29247;50.944;5.382;2022-11-04T13:44:28;6.95;;;4.10;;
43650;SDS011;29247;50.944;5.382;2022-11-04T13:47:02;9.88;;;4.45;;
43650;SDS011;29247;50.944;5.382;2022-11-04T13:49:33;8.75;;;4.03;;
43650;SDS011;29247;50.944;5.382;2022-11-04T13:52:09;6.80;;;3.70;;
43650;SDS011;29247;50.944;5.382;2022-11-04T13:54:44;10.20;;;4.07;;
43650;SDS011;29247;50.944;5.382;2022-11-04T13:57:28;9.70;;;5.10;;
43650;SDS011;29247;50.944;5.382;2022-11-04T14:02:46;11.05;;;5.72;;
43650;SDS011;29247;50.944;5.382;2022-11-04T14:16:11;15.65;;;6.55;;
43650;SDS011;29247;50.944;5.382;2022-11-04T14:18:59;10.65;;;5.88;;
43650;SDS011;29247;50.944;5.382;2022-11-04T14:22:06;10.95;;;6.70;;
43650;SDS011;29247;50.944;5.382;2022-11-04T14:24:41;15.07;;;5.90;;
43650;SDS011;29247;50.944;5.382;2022-11-04T14:27:24;12.82;;;6.75;;
43650;SDS011;29247;50.944;5.382;2022-11-04T14:29:51;15.27;;;6.85;;
43650;SDS011;29247;50.944;5.382;2022-11-04T14:32:20;13.15;;;6.72;;
43650;SDS011;29247;50.944;5.382;2022-11-04T14:34:59;11.88;;;6.60;;
43650;SDS011;29247;50.944;5.382;2022-11-04T14:37:32;12.68;;;6.43;;
43650;SDS011;29247;50.944;5.382;2022-11-04T14:40:03;11.77;;;6.70;;
43650;SDS011;29247;50.944;5.382;2022-11-04T14:43:11;14.75;;;5.95;;
43650;SDS011;29247;50.944;5.382;2022-11-04T14:45:44;11.23;;;5.63;;
43650;SDS011;29247;50.944;5.382;2022-11-04T14:48:18;10.95;;;5.35;;
43650;SDS011;29247;50.944;5.382;2022-11-04T14:50:49;11.23;;;6.60;;
43650;SDS011;29247;50.944;5.382;2022-11-04T14:53:41;7.43;;;5.53;;
43650;SDS011;29247;50.944;5.382;2022-11-04T15:01:47;9.57;;;5.55;;
43650;SDS011;29247;50.944;5.382;2022-11-04T15:04:23;11.30;;;7.05;;
43650;SDS011;29247;50.944;5.382;2022-11-04T15:07:03;13.18;;;6.32;;
43650;SDS011;29247;50.944;5.382;2022-11-04T15:09:48;13.77;;;6.90;;
43650;SDS011;29247;50.944;5.382;2022-11-04T15:12:16;16.45;;;7.25;;
43650;SDS011;29247;50.944;5.382;2022-11-04T15:15:02;15.10;;;6.60;;
43650;SDS011;29247;50.944;5.382;2022-11-04T15:18:08;13.15;;;7.43;;
43650;SDS011;29247;50.944;5.382;2022-11-04T15:20:52;16.48;;;7.22;;
43650;SDS011;29247;50.944;5.382;2022-11-04T15:23:27;12.00;;;7.78;;
43650;SDS011;29247;50.944;5.382;2022-11-04T15:26:00;14.27;;;7.38;;
43650;SDS011;29247;50.944;5.382;2022-11-04T15:28:39;15.13;;;7.78;;
43650;SDS011;29247;50.944;5.382;2022-11-04T15:33:41;15.02;;;7.55;;
43650;SDS011;29247;50.944;5.382;2022-11-04T15:36:19;12.25;;;7.07;;
43650;SDS011;29247;50.944;5.382;2022-11-04T15:39:06;15.98;;;7.47;;
43650;SDS011;29247;50.944;5.382;2022-11-04T15:41:35;12.60;;;6.85;;
43650;SDS011;29247;50.944;5.382;2022-11-04T15:44:27;10.57;;;7.03;;
43650;SDS011;29247;50.944;5.382;2022-11-04T15:46:56;12.00;;;7.82;;
43650;SDS011;29247;50.944;5.382;2022-11-04T15:49:31;16.25;;;8.57;;
43650;SDS011;29247;50.944;5.382;2022-11-04T15:54:33;15.68;;;7.32;;
43650;SDS011;29247;50.944;5.382;2022-11-04T16:00:18;12.75;;;7.38;;
43650;SDS011;29247;50.944;5.382;2022-11-04T16:03:01;13.68;;;7.93;;
43650;SDS011;29247;50.944;5.382;2022-11-04T16:05:32;17.52;;;8.68;;
43650;SDS011;29247;50.944;5.382;2022-11-04T16:10:47;12.48;;;7.53;;
43650;SDS011;29247;50.944;5.382;2022-11-04T16:13:31;11.60;;;7.22;;
43650;SDS011;29247;50.944;5.382;2022-11-04T16:21:03;10.05;;;6.85;;
43650;SDS011;29247;50.944;5.382;2022-11-04T16:23:45;12.15;;;6.93;;
43650;SDS011;29247;50.944;5.382;2022-11-04T16:26:15;11.18;;;6.78;;
43650;SDS011;29247;50.944;5.382;2022-11-04T16:28:52;14.77;;;7.72;;
43650;SDS011;29247;50.944;5.382;2022-11-04T16:33:45;13.55;;;6.35;;
43650;SDS011;29247;50.944;5.382;2022-11-04T16:36:11;10.10;;;6.95;;
43650;SDS011;29247;50.944;5.382;2022-11-04T16:38:51;9.13;;;6.65;;
43650;SDS011;29247;50.944;5.382;2022-11-04T16:43:46;10.65;;;7.15;;
43650;SDS011;29247;50.944;5.382;2022-11-04T16:46:17;12.23;;;7.15;;
43650;SDS011;29247;50.944;5.382;2022-11-04T16:48:46;14.30;;;8.00;;
43650;SDS011;29247;50.944;5.382;2022-11-04T16:51:19;11.40;;;7.15;;
43650;SDS011;29247;50.944;5.382;2022-11-04T16:53:51;12.85;;;8.88;;
43650;SDS011;29247;50.944;5.382;2022-11-04T16:56:22;12.32;;;7.40;;
43650;SDS011;29247;50.944;5.382;2022-11-04T16:58:53;12.80;;;7.88;;
43650;SDS011;29247;50.944;5.382;2022-11-04T17:01:22;13.18;;;7.35;;
43650;SDS011;29247;50.944;5.382;2022-11-04T17:03:48;11.35;;;7.22;;
43650;SDS011;29247;50.944;5.382;2022-11-04T17:06:14;11.00;;;7.50;;
43650;SDS011;29247;50.944;5.382;2022-11-04T17:08:40;11.65;;;7.82;;
43650;SDS011;29247;50.944;5.382;2022-11-04T17:11:06;10.93;;;7.15;;
43650;SDS011;29247;50.944;5.382;2022-11-04T17:13:36;11.23;;;6.50;;
43650;SDS011;29247;50.944;5.382;2022-11-04T17:16:10;10.05;;;6.22;;
43650;SDS011;29247;50.944;5.382;2022-11-04T17:18:40;9.82;;;5.68;;
43650;SDS011;29247;50.944;5.382;2022-11-04T17:21:11;6.53;;;5.30;;
43650;SDS011;29247;50.944;5.382;2022-11-04T17:23:42;6.63;;;4.60;;
43650;SDS011;29247;50.944;5.382;2022-11-04T17:26:12;8.98;;;5.38;;
43650;SDS011;29247;50.944;5.382;2022-11-04T17:28:42;9.13;;;5.95;;
43650;SDS011;29247;50.944;5.382;2022-11-04T17:31:11;12.90;;;7.05;;
43650;SDS011;29247;50.944;5.382;2022-11-04T17:33:43;9.32;;;6.35;;
43650;SDS011;29247;50.944;5.382;2022-11-04T17:36:14;6.85;;;5.47;;
43650;SDS011;29247;50.944;5.382;2022-11-04T17:38:42;8.40;;;5.78;;
43650;SDS011;29247;50.944;5.382;2022-11-04T17:41:08;7.43;;;5.75;;
43650;SDS011;29247;50.944;5.382;2022-11-04T17:43:54;9.68;;;6.18;;
43650;SDS011;29247;50.944;5.382;2022-11-04T17:46:29;10.20;;;5.88;;
43650;SDS011;29247;50.944;5.382;2022-11-04T17:49:03;8.20;;;6.80;;
43650;SDS011;29247;50.944;5.382;2022-11-04T17:51:40;10.35;;;7.07;;
43650;SDS011;29247;50.944;5.382;2022-11-04T17:54:08;10.45;;;7.97;;
43650;SDS011;29247;50.944;5.382;2022-11-04T17:56:36;8.75;;;6.80;;
43650;SDS011;29247;50.944;5.382;2022-11-04T17:59:02;10.68;;;6.97;;
43650;SDS011;29247;50.944;5.382;2022-11-04T18:01:32;15.07;;;6.97;;
43650;SDS011;29247;50.944;5.382;2022-11-04T18:04:03;14.60;;;8.55;;